Time;durP1;ratioP1;P1;durP2;ratioP2;P2;SDS_P1;SDS_P2;PMS_P1;PMS_P2;Temp;Humidity;BMP_temperature;BMP_pressure;BME280_temperature;BME280_humidity;BME280_pressure;Samples;Min_cycle;Max_cycle;Signal;HPM_P1;HPM_P2
2023/10/16 00:02:14;;;;;;;6.93;1.10;;;7.70;99.90;;;;;;5094251;28;20495;-71
2023/10/16 00:04:43;;;;;;;7.32;0.93;;;7.70;99.90;;;;;;5093809;28;20047;-71
2023/10/16 00:07:13;;;;;;;2.35;0.80;;;7.70;99.90;;;;;;5093531;28;20079;-70
2023/10/16 00:09:40;;;;;;;4.63;1.30;;;7.70;99.90;;;;;;5112443;28;20122;-70
2023/10/16 00:12:09;;;;;;;3.80;1.30;;;7.70;99.90;;;;;;5093998;28;20380;-70
2023/10/16 00:14:36;;;;;;;3.10;1.02;;;7.70;99.90;;;;;;5093484;28;20055;-71
2023/10/16 00:17:08;;;;;;;2.63;0.90;;;7.70;99.90;;;;;;5112389;28;20047;-71
2023/10/16 00:19:37;;;;;;;4.15;1.13;;;7.70;99.90;;;;;;5093770;28;20051;-70
2023/10/16 00:22:10;;;;;;;2.60;1.10;;;7.70;99.90;;;;;;5093082;28;20126;-70
2023/10/16 00:24:39;;;;;;;7.35;1.23;;;7.70;99.90;;;;;;5093950;28;20058;-71
2023/10/16 00:27:05;;;;;;;3.42;0.90;;;7.70;99.90;;;;;;5093790;28;20040;-70
2023/10/16 00:29:36;;;;;;;5.57;1.25;;;7.70;99.90;;;;;;5092866;28;20126;-71
2023/10/16 00:32:07;;;;;;;4.80;1.02;;;7.70;99.90;;;;;;5093867;28;20123;-71
2023/10/16 00:34:34;;;;;;;3.35;1.10;;;7.70;99.90;;;;;;5093337;28;20051;-71
2023/10/16 00:37:04;;;;;;;5.20;1.48;;;7.70;99.90;;;;;;5093849;28;20055;-70
2023/10/16 00:39:32;;;;;;;7.65;1.15;;;7.70;99.90;;;;;;5091914;28;20042;-71
2023/10/16 00:42:00;;;;;;;1.88;0.85;;;7.60;99.90;;;;;;5093096;28;20067;-70
2023/10/16 00:44:33;;;;;;;4.40;1.10;;;7.60;99.90;;;;;;5093671;28;20104;-70
2023/10/16 00:47:03;;;;;;;3.03;1.10;;;7.60;99.90;;;;;;5093830;28;20047;-70
2023/10/16 00:49:31;;;;;;;2.75;1.10;;;7.60;99.90;;;;;;5090790;28;20071;-72
2023/10/16 00:51:58;;;;;;;6.40;0.85;;;7.50;99.90;;;;;;5093370;28;20051;-71
2023/10/16 00:54:29;;;;;;;3.08;0.95;;;7.50;99.90;;;;;;5093450;28;20047;-70
2023/10/16 00:56:57;;;;;;;2.90;1.40;;;7.50;99.90;;;;;;5093060;28;20159;-71
2023/10/16 00:59:25;;;;;;;2.25;0.80;;;7.40;99.90;;;;;;5094243;28;20138;-70
2023/10/16 01:02:04;;;;;;;3.65;0.90;;;7.50;99.90;;;;;;5097342;28;20122;-70
2023/10/16 01:04:33;;;;;;;2.13;0.90;;;7.50;99.90;;;;;;5096839;28;20487;-70
2023/10/16 01:07:01;;;;;;;2.25;0.98;;;7.50;99.90;;;;;;5095272;28;20101;-71
2023/10/16 01:09:33;;;;;;;3.88;0.80;;;7.50;99.90;;;;;;5097285;28;20135;-70
2023/10/16 01:12:01;;;;;;;6.45;1.08;;;7.50;99.90;;;;;;5094970;28;20505;-71
2023/10/16 01:14:29;;;;;;;3.20;1.00;;;7.50;99.90;;;;;;5115090;28;20096;-70
2023/10/16 01:16:56;;;;;;;3.38;1.00;;;7.40;99.90;;;;;;5096793;28;20054;-71
2023/10/16 01:19:22;;;;;;;4.30;1.20;;;7.40;99.90;;;;;;5094971;28;20047;-71
2023/10/16 01:21:53;;;;;;;4.78;0.90;;;7.30;99.90;;;;;;5097056;28;20051;-70
2023/10/16 01:24:21;;;;;;;4.82;1.02;;;7.30;99.90;;;;;;5096318;28;20055;-70
2023/10/16 01:26:49;;;;;;;5.28;1.13;;;7.40;99.90;;;;;;5096966;28;20044;-71
2023/10/16 01:29:16;;;;;;;8.27;1.45;;;7.40;99.90;;;;;;5097064;28;20268;-70
2023/10/16 01:31:47;;;;;;;5.35;1.02;;;7.40;99.90;;;;;;5112428;28;20092;-70
2023/10/16 01:34:14;;;;;;;2.42;0.73;;;7.50;99.90;;;;;;5096783;28;20047;-70
2023/10/16 01:36:45;;;;;;;2.60;1.10;;;7.50;99.90;;;;;;5096903;28;20051;-71
2023/10/16 01:39:47;;;;;;;3.47;0.90;;;7.60;99.90;;;;;;5096654;28;20108;-71
2023/10/16 01:42:02;;;;;;;2.22;0.90;;;7.60;99.90;;;;;;5096737;28;20039;-71
2023/10/16 01:44:29;;;;;;;3.95;1.02;;;7.60;99.90;;;;;;5096925;28;20067;-71
2023/10/16 01:46:56;;;;;;;4.93;1.20;;;7.60;99.90;;;;;;5096271;28;20048;-71
2023/10/16 01:49:24;;;;;;;2.63;1.38;;;7.50;99.90;;;;;;5096638;28;20048;-70
2023/10/16 01:51:51;;;;;;;6.20;1.20;;;7.40;99.90;;;;;;5096409;28;20046;-72
2023/10/16 01:54:22;;;;;;;5.30;1.00;;;7.30;99.90;;;;;;5096370;28;20047;-71
2023/10/16 01:56:49;;;;;;;;;;;7.20;99.90;;;;;;5096991;28;20063;-71
2023/10/16 01:59:18;;;;;;;3.85;1.15;;;7.20;99.90;;;;;;5095620;28;20260;-70
2023/10/16 02:01:45;;;;;;;6.28;1.38;;;7.00;99.90;;;;;;5114039;28;20187;-71
2023/10/16 02:04:12;;;;;;;3.20;1.35;;;7.00;99.90;;;;;;5096262;28;20043;-71
2023/10/16 02:06:39;;;;;;;5.03;0.98;;;7.10;99.90;;;;;;5095686;28;20050;-71
2023/10/16 02:09:13;;;;;;;2.75;1.00;;;7.10;99.90;;;;;;5095905;28;20071;-71
2023/10/16 02:11:40;;;;;;;5.38;0.80;;;7.10;99.90;;;;;;5095723;28;20475;-71
2023/10/16 02:14:08;;;;;;;6.15;1.13;;;7.20;99.90;;;;;;5093359;28;20101;-71
2023/10/16 02:16:37;;;;;;;2.58;0.95;;;7.20;99.90;;;;;;5095877;28;20481;-71
2023/10/16 02:19:05;;;;;;;3.22;1.20;;;7.20;99.90;;;;;;5096141;28;20130;-71
2023/10/16 02:21:32;;;;;;;3.92;0.98;;;7.20;99.90;;;;;;5093502;28;20044;-71
2023/10/16 02:24:03;;;;;;;5.38;1.13;;;7.20;99.90;;;;;;5095908;28;20079;-71
2023/10/16 02:26:30;;;;;;;4.90;0.93;;;7.20;99.90;;;;;;5096004;28;20047;-71
2023/10/16 02:29:00;;;;;;;4.60;0.90;;;7.30;99.90;;;;;;5111176;28;20040;-71
2023/10/16 02:31:29;;;;;;;5.50;0.98;;;7.40;99.90;;;;;;5095789;28;20047;-71
2023/10/16 02:34:12;;;;;;;10.02;1.45;;;7.40;99.90;;;;;;5095893;28;20112;-71
2023/10/16 02:36:39;;;;;;;6.57;1.73;;;7.40;99.90;;;;;;5095465;28;20142;-69
2023/10/16 02:39:08;;;;;;;8.32;1.30;;;7.40;99.90;;;;;;5095803;28;20442;-70
2023/10/16 02:41:35;;;;;;;3.22;1.27;;;7.30;99.90;;;;;;5095044;28;20047;-70
2023/10/16 02:44:02;;;;;;;2.88;1.40;;;7.30;99.90;;;;;;5095201;28;20055;-70
2023/10/16 02:46:30;;;;;;;4.50;1.00;;;7.20;99.90;;;;;;5095589;28;20043;-70
2023/10/16 02:48:58;;;;;;;7.60;1.10;;;7.20;99.90;;;;;;5094633;28;20047;-69
2023/10/16 02:51:25;;;;;;;4.40;1.10;;;7.10;99.90;;;;;;5095246;28;20047;-69
2023/10/16 02:53:54;;;;;;;9.45;1.20;;;7.10;99.90;;;;;;5094917;28;20096;-70
2023/10/16 02:56:23;;;;;;;6.78;1.13;;;7.10;99.90;;;;;;5094954;28;20056;-70
2023/10/16 02:58:54;;;;;;;7.28;0.95;;;7.10;99.90;;;;;;5095194;28;20110;-70
2023/10/16 03:01:22;;;;;;;4.38;0.98;;;7.00;99.90;;;;;;5094895;28;20453;-69
2023/10/16 03:03:50;;;;;;;6.03;1.10;;;7.10;99.90;;;;;;5094499;28;20083;-70
2023/10/16 03:06:19;;;;;;;2.80;1.10;;;7.10;99.90;;;;;;5092733;28;20100;-70
2023/10/16 03:08:49;;;;;;;3.55;1.40;;;7.10;99.90;;;;;;5095068;28;20465;-69
2023/10/16 03:11:16;;;;;;;3.00;1.00;;;7.20;99.90;;;;;;5094527;28;20044;-69
2023/10/16 03:13:47;;;;;;;3.97;1.13;;;7.30;99.90;;;;;;5094870;28;20126;-70
2023/10/16 03:16:16;;;;;;;4.88;1.08;;;7.40;99.90;;;;;;5094854;28;20530;-71
2023/10/16 03:18:44;;;;;;;4.20;1.08;;;7.40;99.90;;;;;;5095028;28;20098;-71
2023/10/16 03:24:09;;;;;;;4.38;1.60;;;7.50;99.90;;;;;;5088756;28;20908;-70
2023/10/16 03:26:42;;;;;;;4.63;1.75;;;7.60;99.90;;;;;;5087743;28;20059;-71
2023/10/16 03:29:10;;;;;;;3.88;1.27;;;7.70;99.90;;;;;;5087823;28;20052;-70
2023/10/16 03:31:39;;;;;;;5.70;1.40;;;7.70;99.90;;;;;;5087327;28;20071;-71
2023/10/16 03:34:08;;;;;;;2.78;1.20;;;7.70;99.90;;;;;;5087913;28;20048;-70
2023/10/16 03:36:37;;;;;;;4.03;0.98;;;7.80;99.90;;;;;;5088059;28;20105;-72
2023/10/16 03:39:08;;;;;;;4.50;1.10;;;7.80;99.90;;;;;;5087177;28;20044;-70
2023/10/16 03:41:39;;;;;;;6.60;1.38;;;7.80;99.90;;;;;;5087515;28;20044;-70
2023/10/16 03:44:14;;;;;;;5.50;1.33;;;7.80;99.90;;;;;;5089117;28;20400;-71
2023/10/16 03:46:41;;;;;;;2.45;1.05;;;7.90;99.90;;;;;;5087286;28;20051;-71
2023/10/16 03:49:09;;;;;;;7.38;1.35;;;7.80;99.90;;;;;;5087899;28;20059;-71
2023/10/16 03:51:35;;;;;;;5.03;0.95;;;7.80;99.90;;;;;;5087140;28;20056;-71
2023/10/16 03:54:02;;;;;;;4.55;1.40;;;7.90;99.90;;;;;;5087503;28;20051;-72
2023/10/16 03:56:30;;;;;;;5.97;1.63;;;7.90;99.90;;;;;;5087251;28;20538;-71
2023/10/16 03:58:58;;;;;;;6.95;1.30;;;7.80;99.90;;;;;;5087229;28;20048;-71
2023/10/16 04:01:27;;;;;;;3.45;1.30;;;7.80;99.90;;;;;;5087643;28;20072;-71
2023/10/16 04:03:57;;;;;;;4.30;1.20;;;7.80;99.90;;;;;;5088590;28;20054;-70
2023/10/16 04:06:26;;;;;;;5.23;1.20;;;7.80;99.90;;;;;;5086894;28;20048;-71
2023/10/16 04:08:55;;;;;;;5.07;1.17;;;7.90;99.90;;;;;;5085514;28;20052;-71
2023/10/16 04:11:24;;;;;;;6.88;1.48;;;7.90;99.90;;;;;;5087234;28;20048;-71
2023/10/16 04:13:52;;;;;;;5.57;1.10;;;7.90;99.90;;;;;;5086860;28;20036;-70
2023/10/16 04:16:42;;;;;;;4.57;1.17;;;7.90;99.90;;;;;;5085318;28;20052;-70
2023/10/16 04:21:51;;;;;;;3.92;1.63;;;7.80;99.90;;;;;;5087174;28;20098;-71
2023/10/16 04:24:30;;;;;;;2.45;0.90;;;7.80;99.90;;;;;;5088509;28;20045;-71
2023/10/16 04:27:29;;;;;;;3.65;1.17;;;7.70;99.90;;;;;;5084835;28;20047;-72
2023/10/16 04:29:49;;;;;;;7.85;1.48;;;7.60;99.90;;;;;;5086673;28;20068;-72
2023/10/16 04:32:38;;;;;;;5.47;1.15;;;7.50;99.90;;;;;;5086744;28;20500;-71
2023/10/16 04:35:27;;;;;;;5.82;1.40;;;7.50;99.90;;;;;;5075001;28;20080;-70
2023/10/16 04:37:54;;;;;;;6.68;1.55;;;7.40;99.90;;;;;;5073253;28;20079;-70
2023/10/16 04:43:16;;;;;;;3.03;1.10;;;7.40;99.90;;;;;;5065412;28;20040;-70
2023/10/16 04:46:16;;;;;;;3.25;1.30;;;7.40;99.90;;;;;;5071370;28;20044;-71
2023/10/16 04:48:50;;;;;;;4.38;1.50;;;7.40;99.90;;;;;;5071070;28;20048;-71
2023/10/16 04:51:22;;;;;;;5.03;1.30;;;7.40;99.90;;;;;;5070351;28;20306;-72
2023/10/16 04:53:58;;;;;;;6.15;1.30;;;7.40;99.90;;;;;;5072238;28;20056;-70
2023/10/16 04:56:57;;;;;;;3.03;1.25;;;7.40;99.90;;;;;;5070720;28;20127;-69
2023/10/16 05:02:15;;;;;;;6.68;1.65;;;7.50;99.90;;;;;;5070444;28;20044;-68
2023/10/16 05:07:53;;;;;;;5.22;1.30;;;7.50;99.90;;;;;;5071374;28;20420;-69
2023/10/16 05:18:46;;;;;;;4.60;1.40;;;7.40;99.90;;;;;;5069264;28;20105;-69
2023/10/16 06:16:20;;;;;;;3.55;1.67;;;7.60;99.90;;;;;;5069765;28;20492;-70
2023/10/16 06:18:48;;;;;;;5.57;1.90;;;7.40;99.90;;;;;;5070580;28;20048;-70
2023/10/16 06:21:15;;;;;;;6.28;1.90;;;7.50;99.90;;;;;;5069181;28;20060;-70
2023/10/16 06:23:48;;;;;;;5.30;1.55;;;7.50;99.90;;;;;;5086393;28;20049;-70
2023/10/16 06:26:17;;;;;;;4.40;2.00;;;7.50;99.90;;;;;;5071417;28;20052;-69
2023/10/16 06:28:51;;;;;;;6.70;1.90;;;7.50;99.90;;;;;;5068264;28;20053;-69
2023/10/16 06:31:22;;;;;;;4.25;1.85;;;7.60;99.90;;;;;;5070059;28;20061;-69
2023/10/16 06:33:57;;;;;;;6.97;1.83;;;7.70;99.90;;;;;;5069484;28;20109;-68
2023/10/16 06:36:24;;;;;;;9.98;2.20;;;7.70;99.90;;;;;;5069123;28;20127;-70
2023/10/16 06:38:52;;;;;;;7.53;2.05;;;7.70;99.90;;;;;;5070034;28;20082;-70
2023/10/16 06:41:21;;;;;;;6.72;2.53;;;7.80;99.90;;;;;;5069424;28;20068;-68
2023/10/16 06:43:48;;;;;;;6.70;2.20;;;7.80;99.90;;;;;;5071454;28;20431;-70
2023/10/16 06:46:22;;;;;;;5.13;1.60;;;7.80;99.90;;;;;;5069343;28;20060;-70
2023/10/16 06:48:50;;;;;;;5.68;2.05;;;7.90;99.90;;;;;;5069176;28;20189;-69
2023/10/16 06:51:17;;;;;;;8.13;2.10;;;8.00;99.90;;;;;;5069863;28;20051;-69
2023/10/16 06:53:45;;;;;;;6.30;1.75;;;8.10;99.90;;;;;;5069134;28;20043;-69
2023/10/16 06:56:27;;;;;;;4.70;1.70;;;8.20;99.90;;;;;;5068676;28;20143;-70
2023/10/16 06:58:57;;;;;;;5.57;1.58;;;8.30;99.90;;;;;;5069553;28;20059;-69
2023/10/16 07:01:25;;;;;;;4.97;1.58;;;8.40;99.90;;;;;;5068314;28;20052;-68
2023/10/16 07:03:54;;;;;;;6.38;2.55;;;8.60;99.90;;;;;;5073914;28;20119;-68
2023/10/16 07:06:24;;;;;;;7.82;1.75;;;8.80;99.90;;;;;;5068531;28;20404;-68
2023/10/16 07:08:52;;;;;;;6.50;1.60;;;8.90;99.90;;;;;;5069488;28;20054;-69
2023/10/16 07:11:21;;;;;;;14.75;2.20;;;9.20;99.90;;;;;;5067055;28;20056;-69
2023/10/16 07:13:48;;;;;;;5.78;1.88;;;9.70;99.90;;;;;;5069269;28;20055;-69
2023/10/16 07:16:17;;;;;;;7.35;2.05;;;9.90;99.90;;;;;;5069491;28;20048;-68
2023/10/16 07:18:43;;;;;;;9.15;1.83;;;10.00;99.90;;;;;;5070457;28;20052;-69
2023/10/16 07:21:17;;;;;;;7.20;1.67;;;9.90;99.90;;;;;;5069713;28;20056;-68
2023/10/16 07:23:44;;;;;;;5.32;1.60;;;9.90;99.90;;;;;;5068434;28;20058;-69
2023/10/16 07:26:14;;;;;;;3.70;1.70;;;9.80;99.90;;;;;;5069466;28;20047;-69
2023/10/16 07:28:46;;;;;;;3.58;1.30;;;9.80;99.90;;;;;;5070841;28;20131;-69
2023/10/16 07:31:17;;;;;;;7.15;2.25;;;9.70;99.90;;;;;;5070696;28;20076;-70
2023/10/16 07:33:45;;;;;;;4.78;1.52;;;9.80;99.90;;;;;;5070148;28;20126;-70
2023/10/16 07:36:12;;;;;;;7.80;1.90;;;9.80;99.90;;;;;;5068224;28;20061;-69
2023/10/16 07:38:40;;;;;;;8.10;2.35;;;9.80;99.90;;;;;;5068832;28;20106;-68
2023/10/16 07:41:09;;;;;;;5.55;1.50;;;9.80;99.90;;;;;;5069601;28;20055;-69
2023/10/16 07:43:36;;;;;;;4.88;1.40;;;10.00;99.90;;;;;;5068953;28;20494;-70
2023/10/16 07:46:19;;;;;;;4.13;1.70;;;10.20;99.90;;;;;;5069267;28;20702;-70
2023/10/16 07:48:50;;;;;;;6.00;2.20;;;10.10;99.90;;;;;;5069282;28;20468;-69
2023/10/16 07:51:20;;;;;;;7.10;2.83;;;10.20;99.90;;;;;;5068310;28;20056;-70
2023/10/16 07:53:49;;;;;;;14.85;8.18;;;10.20;99.90;;;;;;5069248;28;20045;-69
2023/10/16 07:56:28;;;;;;;15.88;8.95;;;10.10;99.90;;;;;;5069445;28;20136;-71
2023/10/16 07:59:06;;;;;;;16.90;8.52;;;10.20;99.90;;;;;;5068319;28;20051;-70
2023/10/16 08:01:32;;;;;;;9.60;4.72;;;10.20;99.90;;;;;;5068676;28;20068;-70
2023/10/16 08:04:01;;;;;;;9.80;4.70;;;10.20;99.90;;;;;;5083736;28;20466;-70
2023/10/16 08:06:28;;;;;;;7.65;2.85;;;10.30;99.90;;;;;;5068976;28;20390;-69
2023/10/16 08:09:35;;;;;;;5.28;2.58;;;10.30;99.90;;;;;;5070912;28;20049;-69
2023/10/16 08:11:44;;;;;;;8.37;2.10;;;10.40;99.90;;;;;;5070864;28;20056;-68
2023/10/16 08:14:13;;;;;;;11.88;2.42;;;10.50;99.90;;;;;;5072944;28;20050;-69
2023/10/16 08:16:40;;;;;;;9.20;1.75;;;10.60;99.90;;;;;;5072498;28;20060;-70
2023/10/16 08:19:14;;;;;;;4.15;1.58;;;10.60;99.90;;;;;;5072792;28;20137;-70
2023/10/16 08:21:43;;;;;;;6.55;1.65;;;10.60;99.90;;;;;;5071044;28;20129;-71
2023/10/16 08:24:13;;;;;;;6.75;1.75;;;10.70;99.90;;;;;;5070593;28;20508;-71
2023/10/16 08:26:43;;;;;;;12.48;2.65;;;10.90;99.90;;;;;;5071805;28;20723;-70
2023/10/16 08:29:18;;;;;;;;;;;11.10;99.90;;;;;;5073289;28;20060;-70
2023/10/16 08:31:47;;;;;;;8.18;2.13;;;11.50;99.90;;;;;;5071157;28;19928;-69
2023/10/16 08:34:19;;;;;;;6.25;1.73;;;11.90;99.90;;;;;;5070032;28;20048;-70
2023/10/16 08:36:50;;;;;;;7.32;1.60;;;12.20;99.90;;;;;;5070017;28;20055;-70
2023/10/16 08:39:19;;;;;;;9.25;1.92;;;12.30;99.90;;;;;;5072258;28;20045;-67
2023/10/16 08:41:51;;;;;;;9.63;1.80;;;12.40;99.90;;;;;;5071832;28;20049;-68
2023/10/16 08:44:21;;;;;;;3.13;1.42;;;12.60;99.90;;;;;;5072680;28;20044;-68
2023/10/16 08:47:11;;;;;;;7.43;1.90;;;12.60;99.90;;;;;;5072609;28;20048;-67
2023/10/16 08:49:40;;;;;;;5.37;1.60;;;12.50;99.90;;;;;;5072834;28;20782;-68
2023/10/16 08:52:10;;;;;;;8.27;1.60;;;12.50;99.90;;;;;;5072356;28;20686;-68
2023/10/16 08:55:00;;;;;;;5.93;2.10;;;13.30;99.90;;;;;;5069851;28;20047;-69
2023/10/16 08:57:27;;;;;;;8.32;3.10;;;14.70;99.90;;;;;;5071947;28;20139;-67
2023/10/16 08:59:57;;;;;;;7.25;2.60;;;16.30;99.90;;;;;;5070773;28;20044;-68
2023/10/16 09:02:27;;;;;;;5.78;3.20;;;16.80;99.90;;;;;;5071168;28;20047;-69
2023/10/16 09:04:57;;;;;;;9.35;2.50;;;16.60;99.90;;;;;;5072105;28;20055;-70
2023/10/16 09:07:25;;;;;;;6.53;2.70;;;16.10;99.90;;;;;;5070803;28;20094;-70
2023/10/16 09:09:55;;;;;;;5.78;1.70;;;15.40;99.90;;;;;;5073046;28;20407;-68
2023/10/16 09:12:26;;;;;;;4.22;1.33;;;14.70;99.90;;;;;;5089187;28;20085;-67
2023/10/16 09:14:53;;;;;;;5.07;1.40;;;14.20;99.90;;;;;;5072150;28;20132;-69
2023/10/16 09:17:20;;;;;;;6.47;1.35;;;13.80;99.90;;;;;;5071577;28;20176;-67
2023/10/16 09:19:48;;;;;;;6.15;1.73;;;13.50;99.90;;;;;;5072653;28;20040;-68
2023/10/16 09:22:18;;;;;;;6.47;2.17;;;13.30;99.90;;;;;;5071682;28;20481;-68
2023/10/16 09:24:51;;;;;;;7.57;1.40;;;13.20;99.90;;;;;;5072877;28;20098;-68
2023/10/16 09:27:22;;;;;;;3.67;1.20;;;13.20;99.90;;;;;;5072840;28;20098;-68
2023/10/16 09:29:54;;;;;;;4.25;1.27;;;13.20;99.90;;;;;;5069243;28;20080;-69
2023/10/16 09:32:25;;;;;;;5.38;1.27;;;13.10;99.90;;;;;;5071844;28;20084;-68
2023/10/16 09:34:53;;;;;;;5.28;1.13;;;13.10;99.90;;;;;;5071337;28;20048;-69
2023/10/16 09:37:29;;;;;;;8.93;2.00;;;13.10;99.90;;;;;;5070671;28;20064;-68
2023/10/16 09:40:00;;;;;;;5.22;1.33;;;13.10;99.90;;;;;;5069857;28;20056;-70
2023/10/16 09:42:29;;;;;;;5.43;1.10;;;13.10;99.90;;;;;;5072263;28;20041;-70
2023/10/16 09:45:07;;;;;;;2.97;1.08;;;13.30;99.90;;;;;;5070578;28;20554;-69
2023/10/16 09:47:48;;;;;;;2.92;1.05;;;13.50;99.90;;;;;;5071042;28;20134;-70
2023/10/16 09:50:16;;;;;;;4.65;1.27;;;13.80;99.90;;;;;;5071003;28;20051;-69
2023/10/16 09:52:45;;;;;;;6.07;2.78;;;14.60;99.90;;;;;;5070363;28;20044;-69
2023/10/16 09:55:12;;;;;;;5.97;3.20;;;15.10;99.90;;;;;;5070802;28;20049;-69
2023/10/16 09:57:47;;;;;;;9.25;3.42;;;15.70;99.90;;;;;;5070548;28;20052;-69
2023/10/16 10:00:28;;;;;;;4.20;1.80;;;15.80;99.90;;;;;;5072380;28;20090;-69
2023/10/16 10:03:02;;;;;;;5.68;1.25;;;16.20;99.90;;;;;;5070988;28;20079;-69
2023/10/16 10:05:34;;;;;;;4.10;1.33;;;16.60;99.90;;;;;;5070068;28;20053;-69
2023/10/16 10:08:15;;;;;;;3.42;1.15;;;16.70;99.90;;;;;;5070056;28;20053;-70
2023/10/16 10:13:34;;;;;;;7.35;1.45;;;17.30;99.90;;;;;;5069740;28;20045;-70
2023/10/16 10:16:10;;;;;;;4.70;1.50;;;18.10;99.90;;;;;;5069301;28;20139;-69
2023/10/16 10:18:43;;;;;;;2.88;1.27;;;18.60;99.90;;;;;;5068643;28;20044;-69
2023/10/16 10:21:18;;;;;;;4.32;1.20;;;19.30;99.90;;;;;;5070878;28;20121;-69
2023/10/16 10:23:47;;;;;;;3.05;1.05;;;19.90;99.90;;;;;;5067220;28;20106;-69
2023/10/16 10:26:20;;;;;;;2.03;0.63;;;20.20;99.90;;;;;;5070915;28;20135;-70
2023/10/16 10:29:09;;;;;;;4.45;1.48;;;20.60;99.90;;;;;;5071199;28;20064;-69
2023/10/16 10:31:36;;;;;;;4.72;1.63;;;21.00;99.90;;;;;;5069758;28;20060;-70
2023/10/16 10:34:23;;;;;;;4.38;1.20;;;21.50;99.90;;;;;;5068726;28;20041;-69
2023/10/16 10:36:50;;;;;;;5.65;1.30;;;21.90;99.20;;;;;;5070218;28;20048;-70
2023/10/16 10:39:39;;;;;;;3.20;1.08;;;21.20;99.20;;;;;;5070507;28;20106;-70
2023/10/16 10:42:13;;;;;;;2.35;0.75;;;21.10;96.50;;;;;;5069546;28;20052;-70
2023/10/16 10:44:44;;;;;;;4.75;1.10;;;21.30;98.30;;;;;;5069888;28;20048;-70
2023/10/16 10:47:20;;;;;;;2.60;0.93;;;21.60;97.10;;;;;;5069166;28;20067;-70
2023/10/16 10:49:49;;;;;;;5.22;1.05;;;21.70;94.80;;;;;;5069233;28;20044;-70
2023/10/16 10:52:19;;;;;;;2.45;0.90;;;22.00;96.90;;;;;;5067929;28;20063;-71
2023/10/16 10:54:57;;;;;;;4.90;1.02;;;22.20;95.80;;;;;;5069560;28;20072;-69
2023/10/16 10:57:26;;;;;;;2.88;1.20;;;22.30;94.60;;;;;;5069901;28;20049;-71
2023/10/16 11:00:05;;;;;;;5.47;1.30;;;22.40;95.50;;;;;;5086599;28;20106;-70
2023/10/16 11:02:52;;;;;;;4.70;0.93;;;21.80;94.20;;;;;;5068937;28;20102;-69
2023/10/16 11:05:25;;;;;;;4.47;1.05;;;21.60;94.60;;;;;;5069829;28;20045;-70
2023/10/16 11:08:22;;;;;;;3.47;1.08;;;20.70;94.90;;;;;;5068069;28;20110;-70
2023/10/16 11:10:52;;;;;;;3.70;1.00;;;19.80;96.00;;;;;;5069295;28;20071;-69
2023/10/16 11:13:21;;;;;;;4.50;1.08;;;18.90;97.60;;;;;;5070058;28;20048;-70
2023/10/16 11:15:52;;;;;;;5.88;1.20;;;18.20;98.80;;;;;;5069446;28;20040;-70
2023/10/16 11:18:20;;;;;;;5.80;1.40;;;17.80;99.90;;;;;;5069968;28;20394;-70
2023/10/16 11:20:49;;;;;;;8.85;1.60;;;17.30;99.90;;;;;;5070049;28;20044;-69
2023/10/16 11:23:17;;;;;;;6.43;1.40;;;16.90;99.90;;;;;;5068892;28;20057;-69
2023/10/16 11:25:46;;;;;;;5.15;1.17;;;16.80;99.90;;;;;;5069865;28;20048;-69
2023/10/16 11:28:21;;;;;;;4.20;1.23;;;16.70;99.90;;;;;;5068941;28;20052;-69
2023/10/16 11:30:53;;;;;;;5.57;1.30;;;16.60;99.90;;;;;;5069566;28;20040;-70
2023/10/16 11:33:34;;;;;;;5.20;1.35;;;16.60;99.90;;;;;;5071008;28;20098;-70
2023/10/16 11:36:03;;;;;;;3.65;1.23;;;16.60;99.90;;;;;;5069572;28;20056;-69
2023/10/16 11:38:31;;;;;;;2.83;1.20;;;16.40;99.90;;;;;;5069784;28;20094;-70
2023/10/16 11:41:04;;;;;;;5.72;1.33;;;16.30;99.90;;;;;;5070005;28;20493;-70
2023/10/16 11:43:38;;;;;;;4.75;1.30;;;16.20;99.90;;;;;;5067441;28;20109;-71
2023/10/16 11:46:27;;;;;;;4.95;1.50;;;16.30;99.90;;;;;;5072477;28;20052;-70
2023/10/16 11:48:56;;;;;;;3.05;1.00;;;16.50;99.90;;;;;;5072729;28;20162;-71
2023/10/16 11:51:25;;;;;;;3.90;1.23;;;17.10;99.90;;;;;;5074495;28;20494;-70
2023/10/16 11:53:59;;;;;;;3.53;1.15;;;17.60;99.90;;;;;;5074610;28;20467;-71
2023/10/16 11:56:26;;;;;;;4.35;1.02;;;17.60;99.90;;;;;;5074313;28;20052;-72
2023/10/16 11:58:55;;;;;;;5.50;1.35;;;17.50;99.90;;;;;;5074866;28;20044;-71
2023/10/16 12:01:22;;;;;;;7.30;1.38;;;17.40;99.90;;;;;;5075407;28;20128;-72
2023/10/16 12:03:49;;;;;;;4.65;1.42;;;17.30;99.90;;;;;;5074307;28;20428;-70
2023/10/16 12:06:17;;;;;;;4.43;1.40;;;17.20;99.90;;;;;;5073485;28;20048;-70
2023/10/16 12:08:44;;;;;;;6.18;1.27;;;17.30;99.90;;;;;;5074156;28;20407;-70
2023/10/16 12:11:14;;;;;;;4.07;1.20;;;17.50;99.90;;;;;;5073983;28;20048;-69
2023/10/16 12:13:41;;;;;;;3.53;1.90;;;17.80;99.90;;;;;;5075126;28;20128;-70
2023/10/16 12:16:10;;;;;;;4.43;1.38;;;17.70;99.90;;;;;;5073815;28;20123;-70
2023/10/16 12:18:37;;;;;;;7.28;1.40;;;17.50;99.90;;;;;;5073318;28;20106;-71
2023/10/16 12:21:06;;;;;;;4.35;1.30;;;17.40;99.90;;;;;;5074041;28;20503;-70
2023/10/16 12:23:36;;;;;;;8.95;1.65;;;17.20;99.90;;;;;;5074812;28;20068;-71
2023/10/16 12:26:04;;;;;;;4.32;1.45;;;17.40;99.90;;;;;;5072895;28;20052;-70
2023/10/16 12:28:32;;;;;;;6.90;1.33;;;17.20;99.90;;;;;;5073532;28;20059;-70
2023/10/16 12:30:59;;;;;;;5.18;1.40;;;17.10;99.90;;;;;;5073745;28;20484;-71
2023/10/16 12:33:27;;;;;;;6.07;1.55;;;17.00;99.90;;;;;;5073033;28;20075;-70
2023/10/16 12:35:55;;;;;;;4.20;1.25;;;17.00;99.90;;;;;;5073497;28;20102;-70
2023/10/16 12:38:24;;;;;;;4.45;1.17;;;17.10;99.90;;;;;;5073745;28;20106;-69
2023/10/16 12:40:55;;;;;;;5.68;1.10;;;17.30;99.90;;;;;;5072723;28;20117;-70
2023/10/16 12:43:21;;;;;;;;;;;17.40;99.90;;;;;;5074059;28;20433;-69
2023/10/16 12:45:50;;;;;;;3.80;0.95;;;17.40;99.80;;;;;;5073390;28;20334;-70
2023/10/16 12:48:18;;;;;;;5.72;1.27;;;17.60;99.90;;;;;;5072829;28;20056;-69
2023/10/16 12:50:47;;;;;;;6.38;1.40;;;17.70;99.90;;;;;;5073349;28;20131;-69
2023/10/16 12:53:15;;;;;;;3.63;1.15;;;17.90;99.60;;;;;;5064185;28;20473;-69
2023/10/16 12:55:48;;;;;;;3.45;1.20;;;18.10;99.70;;;;;;5073608;28;20087;-70
2023/10/16 12:58:18;;;;;;;5.95;1.42;;;18.10;98.90;;;;;;5072537;28;20131;-70
2023/10/16 13:00:50;;;;;;;4.82;0.90;;;18.30;98.20;;;;;;5073361;28;20149;-68
2023/10/16 13:03:19;;;;;;;4.88;1.42;;;18.30;98.20;;;;;;5073261;28;20052;-69
2023/10/16 13:05:48;;;;;;;5.85;1.20;;;18.20;98.20;;;;;;5072575;28;20041;-69
2023/10/16 13:08:17;;;;;;;6.10;1.37;;;18.30;97.90;;;;;;5070816;28;20151;-68
2023/10/16 13:10:48;;;;;;;7.65;1.30;;;18.30;98.30;;;;;;5072186;28;20287;-70
2023/10/16 13:13:19;;;;;;;5.60;1.08;;;18.20;98.40;;;;;;5071626;28;20070;-69
2023/10/16 13:15:51;;;;;;;4.63;1.42;;;18.10;98.60;;;;;;5070921;28;20073;-69
2023/10/16 13:18:27;;;;;;;6.15;1.40;;;18.00;98.40;;;;;;5071606;28;20052;-70
2023/10/16 13:21:04;;;;;;;6.55;1.50;;;17.80;98.30;;;;;;5070818;28;20526;-70
2023/10/16 13:23:34;;;;;;;5.90;1.45;;;17.60;98.80;;;;;;5070502;28;20056;-70
2023/10/16 13:26:02;;;;;;;2.92;1.33;;;17.40;99.40;;;;;;5070097;28;20117;-69
2023/10/16 13:28:30;;;;;;;2.92;1.00;;;17.40;99.40;;;;;;5071764;28;20048;-70
2023/10/16 13:30:58;;;;;;;6.57;1.30;;;17.40;99.30;;;;;;5071399;28;20106;-69
2023/10/16 13:33:26;;;;;;;3.63;0.87;;;17.30;99.50;;;;;;5071730;28;20118;-70
2023/10/16 13:35:54;;;;;;;4.18;0.88;;;17.30;99.20;;;;;;5071046;28;20082;-69
2023/10/16 13:38:25;;;;;;;5.60;1.23;;;17.10;99.30;;;;;;5071874;28;20048;-70
2023/10/16 13:40:53;;;;;;;5.15;1.50;;;17.10;99.00;;;;;;5071145;28;20040;-69
2023/10/16 13:43:20;;;;;;;5.38;1.40;;;17.10;99.80;;;;;;5070819;28;20044;-70
2023/10/16 13:45:47;;;;;;;4.30;1.10;;;17.10;99.70;;;;;;5069134;28;20094;-70
2023/10/16 13:48:16;;;;;;;3.55;1.23;;;17.00;99.70;;;;;;5071378;28;20055;-70
2023/10/16 13:50:47;;;;;;;4.00;1.15;;;16.90;99.30;;;;;;5069216;28;20518;-71
2023/10/16 13:53:15;;;;;;;4.90;1.90;;;16.60;99.50;;;;;;5070895;28;20511;-70
2023/10/16 13:55:43;;;;;;;4.45;1.13;;;16.30;99.70;;;;;;5071046;28;20048;-70
2023/10/16 13:58:10;;;;;;;5.90;1.25;;;16.10;99.90;;;;;;5069242;28;20060;-70
2023/10/16 14:00:38;;;;;;;7.57;0.95;;;16.10;99.90;;;;;;5071215;28;20436;-70
2023/10/16 14:03:07;;;;;;;2.83;0.90;;;16.00;99.90;;;;;;5069249;28;20131;-70
2023/10/16 14:05:40;;;;;;;4.82;1.25;;;15.90;99.90;;;;;;5070340;28;20048;-70
2023/10/16 14:08:10;;;;;;;5.47;1.02;;;15.90;99.90;;;;;;5069480;28;20051;-70
2023/10/16 14:10:39;;;;;;;7.10;1.40;;;15.90;99.90;;;;;;5070876;28;20072;-70
2023/10/16 14:13:18;;;;;;;1.70;0.65;;;15.90;99.90;;;;;;5070183;28;20044;-70
2023/10/16 14:15:46;;;;;;;5.15;1.10;;;15.90;99.90;;;;;;5070820;28;20048;-71
2023/10/16 14:18:20;;;;;;;6.05;1.15;;;15.90;99.90;;;;;;5069721;28;20101;-71
2023/10/16 14:20:48;;;;;;;4.75;1.08;;;15.90;99.90;;;;;;5069708;28;20044;-71
2023/10/16 14:23:15;;;;;;;3.75;0.90;;;15.90;99.90;;;;;;5070385;28;20091;-70
2023/10/16 14:25:47;;;;;;;2.72;0.88;;;15.90;99.90;;;;;;5070076;28;20123;-70
2023/10/16 14:28:32;;;;;;;3.47;0.82;;;15.90;99.90;;;;;;5068600;28;20063;-70
2023/10/16 14:31:01;;;;;;;5.88;0.90;;;15.90;99.90;;;;;;5070516;28;20113;-70
2023/10/16 14:33:30;;;;;;;4.68;1.20;;;15.90;99.90;;;;;;5069813;28;20045;-71